Portland, United Kingdom
Current Conditions -  °F | °C
As of 10:20 AM on Monday 20 Oct 2014 (Local Time) from EGHH Reporting Station
Scattered Clouds Scattered Clouds  
Wind Chill: 15°   Ceiling: Unl
Heat Index: 15°   Visibility: 6mi
Dew Point: 12°   Wind: 12mph
Humidity: 82%   Direction: 250°WSW
Pressure: 30.06"   Gusts: NA
Location:  50.56°N, 2.44°W
Report Text: EGHH 200920Z 25010KT 9999 FEW026 SCT041 15/12 Q1018
Loading
Personal Weather Stations






























Interactive Weather Map
Tropical Storm Tracking
New forecast layout! Learn more

10-Day Weather Forecast

Advertisements
Track Severe Weather on mobile